createdAt,value
2022-11-16T00:01:49.436Z,86.00
2022-11-16T00:04:17.086Z,86.12
2022-11-16T00:06:45.803Z,85.79
2022-11-16T00:09:27.183Z,85.62
2022-11-16T00:11:57.466Z,86.66
2022-11-16T00:14:26.797Z,86.28
2022-11-16T00:16:54.343Z,86.14
2022-11-16T00:19:22.559Z,85.23
2022-11-16T00:21:50.836Z,84.96
2022-11-16T00:24:19.569Z,85.25
2022-11-16T00:26:47.486Z,84.67
2022-11-16T00:29:16.682Z,85.75
2022-11-16T00:31:45.490Z,85.10
2022-11-16T00:34:13.193Z,86.57
2022-11-16T00:36:40.796Z,85.51
2022-11-16T00:39:11.314Z,86.79
2022-11-16T00:41:39.091Z,85.87
2022-11-16T00:44:06.514Z,85.57
2022-11-16T00:46:33.876Z,84.64
2022-11-16T00:49:02.236Z,84.87
2022-11-16T00:51:29.900Z,83.92
2022-11-16T00:53:57.977Z,83.45
2022-11-16T00:56:25.744Z,83.90
2022-11-16T00:58:53.101Z,84.32
2022-11-16T01:01:20.510Z,86.62
2022-11-16T01:03:50.736Z,85.78
2022-11-16T01:06:20.348Z,87.17
2022-11-16T01:08:47.970Z,87.46
2022-11-16T01:11:34.905Z,87.18
2022-11-16T01:14:07.435Z,86.49
2022-11-16T01:16:35.949Z,86.82
2022-11-16T01:19:05.099Z,87.18
2022-11-16T01:21:33.300Z,86.25
2022-11-16T01:24:00.604Z,85.78
2022-11-16T01:26:28.280Z,86.75
2022-11-16T01:28:55.975Z,87.66
2022-11-16T01:31:24.088Z,87.00
2022-11-16T01:33:51.782Z,86.13
2022-11-16T01:36:19.569Z,85.83
2022-11-16T01:38:47.350Z,86.06
2022-11-16T01:41:17.761Z,84.29
2022-11-16T01:43:56.634Z,86.22
2022-11-16T01:46:25.697Z,85.01
2022-11-16T01:49:03.584Z,85.05
2022-11-16T01:51:32.511Z,85.64
2022-11-16T01:54:02.028Z,85.39
2022-11-16T01:56:31.609Z,86.73
2022-11-16T01:58:59.510Z,85.93
2022-11-16T02:01:27.292Z,85.39
2022-11-16T02:03:55.575Z,85.32
2022-11-16T02:06:26.211Z,85.59
2022-11-16T02:09:38.205Z,86.23
2022-11-16T02:12:30.906Z,86.14
2022-11-16T02:15:01.346Z,86.18
2022-11-16T02:17:54.960Z,85.96
2022-11-16T02:20:40.247Z,84.64
2022-11-16T02:23:16.849Z,84.44
2022-11-16T02:26:07.665Z,84.77
2022-11-16T02:28:44.228Z,84.41
2022-11-16T02:31:15.675Z,84.04
2022-11-16T02:33:44.482Z,84.53
2022-11-16T02:36:15.043Z,84.27
2022-11-16T02:38:49.071Z,84.10
2022-11-16T02:41:20.056Z,83.85
2022-11-16T02:43:52.962Z,83.77
2022-11-16T02:46:26.338Z,83.84
2022-11-16T02:48:56.475Z,84.12
2022-11-16T02:51:25.165Z,84.13
2022-11-16T02:54:00.753Z,84.16
2022-11-16T02:56:29.968Z,83.91
2022-11-16T02:58:58.892Z,82.70
2022-11-16T03:01:38.350Z,83.23
2022-11-16T03:04:16.391Z,84.46
2022-11-16T03:06:48.185Z,84.39
2022-11-16T03:09:22.795Z,83.84
2022-11-16T03:12:02.481Z,83.70
2022-11-16T03:15:09.749Z,84.24
2022-11-16T03:17:41.353Z,83.07
2022-11-16T03:20:16.190Z,83.43
2022-11-16T03:22:52.713Z,84.06
2022-11-16T03:25:21.361Z,85.02
2022-11-16T03:27:52.712Z,83.79
2022-11-16T03:30:24.005Z,83.66
2022-11-16T03:33:00.786Z,84.23
2022-11-16T03:35:31.963Z,85.94
2022-11-16T03:38:00.858Z,85.09
2022-11-16T03:40:30.846Z,84.67
2022-11-16T03:43:00.097Z,84.15
2022-11-16T03:45:28.407Z,85.11
2022-11-16T03:47:55.772Z,85.15
2022-11-16T03:50:23.313Z,84.65
2022-11-16T03:52:51.403Z,85.34
2022-11-16T03:55:19.241Z,86.22
2022-11-16T03:57:46.888Z,85.86
2022-11-16T04:00:16.036Z,86.70
2022-11-16T04:02:43.777Z,85.36
2022-11-16T04:05:29.526Z,86.53
2022-11-16T04:08:15.839Z,86.42
2022-11-16T04:11:02.780Z,85.82
2022-11-16T04:13:51.083Z,86.30
2022-11-16T04:16:37.054Z,86.80
2022-11-16T04:19:24.316Z,85.89
2022-11-16T04:22:13.834Z,86.79
2022-11-16T04:24:44.328Z,86.83
2022-11-16T04:27:32.399Z,86.07
2022-11-16T04:30:01.488Z,85.73
2022-11-16T04:32:49.645Z,86.08
2022-11-16T04:35:29.518Z,86.90
2022-11-16T04:37:58.060Z,84.38
2022-11-16T04:40:30.295Z,86.80
2022-11-16T04:42:59.654Z,85.56
2022-11-16T04:45:47.301Z,86.20
2022-11-16T04:48:17.549Z,84.78
2022-11-16T04:50:46.004Z,85.51
2022-11-16T04:53:13.788Z,86.82
2022-11-16T04:55:43.103Z,85.06
2022-11-16T04:58:10.738Z,86.55
2022-11-16T05:00:38.409Z,86.34
2022-11-16T05:03:05.834Z,86.29
2022-11-16T05:05:33.603Z,86.85
2022-11-16T05:08:01.113Z,88.08
2022-11-16T05:10:29.210Z,87.46
2022-11-16T05:12:57.521Z,86.92
2022-11-16T05:15:25.212Z,85.81
2022-11-16T05:17:55.694Z,87.59
2022-11-16T05:20:42.706Z,89.16
2022-11-16T05:23:30.100Z,87.20
2022-11-16T05:25:58.105Z,87.03
2022-11-16T05:28:25.454Z,88.65
2022-11-16T05:30:52.963Z,87.89
2022-11-16T05:33:22.674Z,88.14
2022-11-16T05:35:51.562Z,87.12
2022-11-16T05:38:19.519Z,87.46
2022-11-16T05:40:47.426Z,87.90
2022-11-16T05:43:15.358Z,87.06
2022-11-16T05:45:43.350Z,87.77
2022-11-16T05:48:11.573Z,87.21
2022-11-16T05:50:42.778Z,86.20
2022-11-16T05:53:10.861Z,85.99
2022-11-16T05:55:38.514Z,85.31
2022-11-16T05:58:05.936Z,86.60
2022-11-16T06:00:34.564Z,87.02
2022-11-16T06:03:02.365Z,86.85
2022-11-16T06:05:29.892Z,85.87
2022-11-16T06:07:57.667Z,84.54
2022-11-16T06:10:25.531Z,85.20
2022-11-16T06:12:53.184Z,88.07
2022-11-16T06:15:20.593Z,89.04
2022-11-16T06:17:48.401Z,87.68
2022-11-16T06:20:16.024Z,86.86
2022-11-16T06:22:44.178Z,86.84
2022-11-16T06:25:12.237Z,88.86
2022-11-16T06:27:42.529Z,86.35
2022-11-16T06:30:10.313Z,85.49
2022-11-16T06:32:38.621Z,87.35
2022-11-16T06:35:06.705Z,87.58
2022-11-16T06:37:34.304Z,86.42
2022-11-16T06:40:03.411Z,85.66
2022-11-16T06:42:31.915Z,86.51
2022-11-16T06:44:59.598Z,85.45
2022-11-16T06:47:27.799Z,85.54
2022-11-16T06:49:55.686Z,85.94
2022-11-16T06:52:23.377Z,85.31
2022-11-16T06:54:51.212Z,87.16
2022-11-16T06:57:18.562Z,87.26
2022-11-16T06:59:46.005Z,87.26
2022-11-16T07:02:14.572Z,86.50
2022-11-16T07:04:42.125Z,85.92
2022-11-16T07:07:09.582Z,85.62
2022-11-16T07:09:37.462Z,84.97
2022-11-16T07:12:06.303Z,84.94
2022-11-16T07:14:34.555Z,83.50
2022-11-16T07:17:09.100Z,86.33
2022-11-16T07:19:36.901Z,85.31
2022-11-16T07:22:04.619Z,87.56
2022-11-16T07:24:33.082Z,86.18
2022-11-16T07:27:00.638Z,85.15
2022-11-16T07:29:28.608Z,85.85
2022-11-16T07:32:00.787Z,89.67
2022-11-16T07:34:28.677Z,90.08
2022-11-16T07:37:00.391Z,87.98
2022-11-16T07:39:27.777Z,88.22
2022-11-16T07:41:55.712Z,86.40
2022-11-16T07:44:23.294Z,86.83
2022-11-16T07:46:59.420Z,85.82
2022-11-16T07:49:26.826Z,86.58
2022-11-16T07:51:54.803Z,87.91
2022-11-16T07:54:24.871Z,88.28
2022-11-16T07:56:52.633Z,87.61
2022-11-16T07:59:20.166Z,86.02
2022-11-16T08:01:48.953Z,86.45
2022-11-16T08:04:17.797Z,86.46
2022-11-16T08:06:46.862Z,85.78
2022-11-16T08:09:14.286Z,86.39
2022-11-16T08:11:42.047Z,87.75
2022-11-16T08:14:11.692Z,87.18
2022-11-16T08:16:39.323Z,87.58
2022-11-16T08:19:07.446Z,86.43
2022-11-16T08:21:34.815Z,86.88
2022-11-16T08:24:02.796Z,87.80
2022-11-16T08:26:30.733Z,86.59
2022-11-16T08:28:58.584Z,87.22
2022-11-16T08:31:28.121Z,88.68
2022-11-16T08:33:59.990Z,85.96
2022-11-16T08:36:27.659Z,85.47
2022-11-16T08:38:55.866Z,85.75
2022-11-16T08:41:24.359Z,84.72
2022-11-16T08:43:53.450Z,84.60
2022-11-16T08:46:21.784Z,86.08
2022-11-16T08:48:55.840Z,87.27
2022-11-16T08:51:24.785Z,85.50
2022-11-16T08:53:57.462Z,85.19
2022-11-16T08:56:30.164Z,84.10
2022-11-16T08:58:59.348Z,84.43
2022-11-16T09:01:29.354Z,85.41
2022-11-16T09:03:57.110Z,87.25
2022-11-16T09:06:26.371Z,87.67
2022-11-16T09:08:53.956Z,87.38
2022-11-16T09:11:22.688Z,86.84
2022-11-16T09:13:52.145Z,85.60
2022-11-16T09:16:21.049Z,85.41
2022-11-16T09:18:50.090Z,84.76
2022-11-16T09:21:25.846Z,85.74
2022-11-16T09:23:54.160Z,85.15
2022-11-16T09:26:23.221Z,86.26
2022-11-16T09:28:59.289Z,83.65
2022-11-16T09:31:28.324Z,84.57
2022-11-16T09:33:58.435Z,84.20
2022-11-16T09:36:27.571Z,86.24
2022-11-16T09:39:19.431Z,85.27
2022-11-16T09:42:04.002Z,83.78
2022-11-16T09:45:01.281Z,84.92
2022-11-16T09:47:40.367Z,86.99
2022-11-16T09:50:19.214Z,84.93
2022-11-16T09:52:48.524Z,83.72
2022-11-16T09:55:38.692Z,83.75
2022-11-16T09:58:13.184Z,90.66
2022-11-16T10:00:44.369Z,86.75
2022-11-16T10:03:13.606Z,85.84
2022-11-16T10:05:47.993Z,84.78
2022-11-16T10:08:23.332Z,86.46
2022-11-16T10:11:09.574Z,85.61
2022-11-16T10:14:04.187Z,85.47
2022-11-16T10:16:40.236Z,84.48
2022-11-16T10:19:23.114Z,84.26
2022-11-16T10:22:16.604Z,85.09
2022-11-16T10:25:01.123Z,84.96
2022-11-16T10:27:46.390Z,83.81
2022-11-16T10:30:19.631Z,84.66
2022-11-16T10:33:17.265Z,83.93
2022-11-16T10:35:49.056Z,84.61
2022-11-16T10:38:19.277Z,83.72
2022-11-16T10:40:51.130Z,83.67
2022-11-16T10:43:24.152Z,81.92
2022-11-16T10:46:18.571Z,85.00
2022-11-16T10:49:08.009Z,84.94
2022-11-16T10:51:36.058Z,84.04
2022-11-16T10:54:12.071Z,84.55
2022-11-16T10:56:42.596Z,85.89
2022-11-16T10:59:12.419Z,84.51
2022-11-16T11:01:40.892Z,85.60
2022-11-16T11:04:22.670Z,85.63
2022-11-16T11:07:29.549Z,86.42
2022-11-16T11:09:56.937Z,87.34
2022-11-16T11:12:40.717Z,85.74
2022-11-16T11:15:10.694Z,86.41
2022-11-16T11:17:43.454Z,86.10
2022-11-16T11:20:16.992Z,86.66
2022-11-16T11:22:58.908Z,86.67
2022-11-16T11:25:29.193Z,86.32
2022-11-16T11:28:20.168Z,86.03
2022-11-16T11:31:01.004Z,87.66
2022-11-16T11:33:38.008Z,89.54
2022-11-16T11:36:18.859Z,87.28
2022-11-16T11:39:01.688Z,87.03
2022-11-16T11:41:37.949Z,85.88
2022-11-16T11:44:06.762Z,85.56
2022-11-16T11:47:06.714Z,84.48
2022-11-16T11:49:33.696Z,89.23
2022-11-16T11:52:26.492Z,89.56
2022-11-16T11:54:54.881Z,88.26
2022-11-16T11:57:23.858Z,87.65
2022-11-16T11:59:53.196Z,86.64
2022-11-16T12:02:43.669Z,86.48
2022-11-16T12:05:42.380Z,87.22
2022-11-16T12:08:28.224Z,86.67
2022-11-16T12:11:01.553Z,86.00
2022-11-16T12:13:53.801Z,85.64
2022-11-16T12:16:45.637Z,86.42
2022-11-16T12:19:34.554Z,85.52
2022-11-16T12:22:22.964Z,83.63
2022-11-16T12:25:15.031Z,84.18
2022-11-16T12:28:38.539Z,83.51
2022-11-16T12:31:14.779Z,82.81
2022-11-16T12:33:52.948Z,84.73
2022-11-16T12:36:32.292Z,84.05
2022-11-16T12:39:20.672Z,84.58
2022-11-16T12:41:54.084Z,84.39
2022-11-16T12:44:40.154Z,84.69
2022-11-16T12:47:50.155Z,85.12
2022-11-16T12:50:36.644Z,83.42
2022-11-16T12:53:37.860Z,83.72
2022-11-16T12:56:12.352Z,82.73
2022-11-16T12:59:04.627Z,82.78
2022-11-16T13:01:38.554Z,84.32
2022-11-16T13:04:14.890Z,81.88
2022-11-16T13:06:47.713Z,83.32
2022-11-16T13:09:27.982Z,83.94
2022-11-16T13:11:58.192Z,84.02
2022-11-16T13:14:32.092Z,83.70
2022-11-16T13:17:02.198Z,83.51
2022-11-16T13:19:29.751Z,83.64
2022-11-16T13:22:06.919Z,84.63
2022-11-16T13:24:52.074Z,83.35
2022-11-16T13:27:41.700Z,82.89
2022-11-16T13:30:21.878Z,82.74
2022-11-16T13:33:22.694Z,83.28
2022-11-16T13:35:51.676Z,82.77
2022-11-16T13:38:54.221Z,82.19
2022-11-16T13:41:29.643Z,82.23
2022-11-16T13:43:57.324Z,82.27
2022-11-16T13:47:01.026Z,82.14
2022-11-16T13:49:32.263Z,81.44
2022-11-16T13:52:21.444Z,81.35
2022-11-16T13:54:53.448Z,81.53
2022-11-16T13:57:32.765Z,81.98
2022-11-16T14:00:05.274Z,81.36
2022-11-16T14:02:40.814Z,81.51
2022-11-16T14:05:41.591Z,81.73
2022-11-16T14:08:24.338Z,81.28
2022-11-16T14:10:51.715Z,80.95
2022-11-16T14:13:37.993Z,80.98
2022-11-16T14:16:17.532Z,80.86
2022-11-16T14:18:55.782Z,80.41
2022-11-16T14:21:26.822Z,80.91
2022-11-16T14:24:19.381Z,80.05
2022-11-16T14:26:49.285Z,79.47
2022-11-16T14:29:45.000Z,81.22
2022-11-16T14:32:41.314Z,83.68
2022-11-16T14:35:25.508Z,80.87
2022-11-16T14:38:05.115Z,83.01
2022-11-16T14:40:54.860Z,84.43
2022-11-16T14:43:30.445Z,81.39
2022-11-16T14:46:02.310Z,80.07
2022-11-16T14:48:29.856Z,78.30
2022-11-16T14:51:09.510Z,76.05
2022-11-16T14:53:40.786Z,77.08
2022-11-16T14:56:14.126Z,77.47
2022-11-16T14:59:15.599Z,79.09
2022-11-16T15:01:43.081Z,79.90
2022-11-16T15:04:11.307Z,81.06
2022-11-16T15:06:42.716Z,81.40
2022-11-16T15:09:17.078Z,82.68
2022-11-16T15:12:06.161Z,82.45
2022-11-16T15:14:38.430Z,83.21
2022-11-16T15:17:07.139Z,83.39
2022-11-16T15:19:34.723Z,81.25
2022-11-16T15:22:04.231Z,80.79
2022-11-16T15:24:33.855Z,81.31
2022-11-16T15:27:23.073Z,79.94
2022-11-16T15:29:50.659Z,79.49
2022-11-16T15:32:18.254Z,79.70
2022-11-16T15:34:52.693Z,80.58
2022-11-16T15:37:27.977Z,82.26
2022-11-16T15:39:56.971Z,85.67
2022-11-16T15:42:25.988Z,84.80
2022-11-16T15:44:54.020Z,83.30
2022-11-16T15:47:21.931Z,83.52
2022-11-16T15:49:52.912Z,82.28
2022-11-16T15:52:43.633Z,81.12
2022-11-16T15:55:21.528Z,82.47
2022-11-16T15:58:06.166Z,82.44
2022-11-16T16:00:36.315Z,82.66
2022-11-16T16:03:25.675Z,86.33
2022-11-16T16:05:53.593Z,86.23
2022-11-16T16:08:33.365Z,84.37
2022-11-16T16:11:20.302Z,84.19
2022-11-16T16:13:59.219Z,83.45
2022-11-16T16:16:29.995Z,84.30
2022-11-16T16:19:06.686Z,84.69
2022-11-16T16:21:43.018Z,84.26
2022-11-16T16:24:36.788Z,81.79
2022-11-16T16:27:16.136Z,79.56
2022-11-16T16:29:45.240Z,79.42
2022-11-16T16:32:16.071Z,78.82
2022-11-16T16:34:43.733Z,79.26
2022-11-16T16:37:12.041Z,80.94
2022-11-16T16:39:39.927Z,81.64
2022-11-16T16:42:12.922Z,80.15
2022-11-16T16:44:41.123Z,78.87
2022-11-16T16:47:09.099Z,75.88
2022-11-16T16:49:36.756Z,76.05
2022-11-16T16:52:05.125Z,76.19
2022-11-16T16:54:33.014Z,76.45
2022-11-16T16:57:02.579Z,74.99
2022-11-16T16:59:30.263Z,76.52
2022-11-16T17:01:58.822Z,77.21
2022-11-16T17:04:26.219Z,77.15
2022-11-16T17:06:54.201Z,77.68
2022-11-16T17:09:22.003Z,76.33
2022-11-16T17:11:49.495Z,75.58
2022-11-16T17:14:18.398Z,76.11
2022-11-16T17:16:46.095Z,75.88
2022-11-16T17:19:14.004Z,76.02
2022-11-16T17:21:41.602Z,76.38
2022-11-16T17:24:09.931Z,78.46
2022-11-16T17:26:37.483Z,78.29
2022-11-16T17:29:05.244Z,76.40
2022-11-16T17:31:33.124Z,76.64
2022-11-16T17:34:02.038Z,77.27
2022-11-16T17:36:29.978Z,76.45
2022-11-16T17:38:58.785Z,77.13
2022-11-16T17:41:26.562Z,79.84
2022-11-16T17:43:54.909Z,77.48
2022-11-16T17:46:24.484Z,77.67
2022-11-16T17:48:52.513Z,78.22
2022-11-16T17:51:22.499Z,80.03
2022-11-16T17:53:50.566Z,81.30
2022-11-16T17:56:23.414Z,82.41
2022-11-16T17:58:52.342Z,82.36
2022-11-16T18:01:20.605Z,81.95
2022-11-16T18:03:48.411Z,85.48
2022-11-16T18:06:21.935Z,82.95
2022-11-16T18:08:49.831Z,79.87
2022-11-16T18:11:22.922Z,80.90
2022-11-16T18:13:58.889Z,79.57
2022-11-16T18:16:28.826Z,78.34
2022-11-16T18:19:05.858Z,79.36
2022-11-16T18:21:39.743Z,78.50
2022-11-16T18:24:08.855Z,79.44
2022-11-16T18:26:36.932Z,79.08
2022-11-16T18:29:05.016Z,77.53
2022-11-16T18:31:36.016Z,79.80
2022-11-16T18:34:04.010Z,79.87
2022-11-16T18:36:31.849Z,78.82
2022-11-16T18:39:00.210Z,78.47
2022-11-16T18:41:29.460Z,79.97
2022-11-16T18:43:59.429Z,79.54
2022-11-16T18:46:31.474Z,79.90
2022-11-16T18:48:59.951Z,82.38
2022-11-16T18:51:29.126Z,84.59
2022-11-16T18:53:57.877Z,84.34
2022-11-16T18:56:27.353Z,80.27
2022-11-16T18:58:55.591Z,78.85
2022-11-16T19:01:27.043Z,79.22
2022-11-16T19:03:57.083Z,80.67
2022-11-16T19:06:25.266Z,79.19
2022-11-16T19:08:56.541Z,77.81
2022-11-16T19:11:25.014Z,78.13
2022-11-16T19:13:56.934Z,79.18
2022-11-16T19:16:25.928Z,78.29
2022-11-16T19:18:53.963Z,79.47
2022-11-16T19:21:24.218Z,79.13
2022-11-16T19:23:53.614Z,78.32
2022-11-16T19:26:23.908Z,79.77
2022-11-16T19:28:54.082Z,86.20
2022-11-16T19:31:29.238Z,83.04
2022-11-16T19:34:02.439Z,81.30
2022-11-16T19:36:32.735Z,79.15
2022-11-16T19:39:01.316Z,80.42
2022-11-16T19:41:29.514Z,80.45
2022-11-16T19:44:01.810Z,82.73
2022-11-16T19:46:33.983Z,86.23
2022-11-16T19:49:01.790Z,88.90
2022-11-16T19:51:31.545Z,88.92
2022-11-16T19:54:02.840Z,83.29
2022-11-16T19:56:31.040Z,83.20
2022-11-16T19:58:58.936Z,81.69
2022-11-16T20:01:29.590Z,83.24
2022-11-16T20:04:02.663Z,80.16
2022-11-16T20:06:32.605Z,85.10
2022-11-16T20:09:08.978Z,86.64
2022-11-16T20:11:38.819Z,88.39
2022-11-16T20:14:09.389Z,88.42
2022-11-16T20:16:43.659Z,90.13
2022-11-16T20:19:11.956Z,92.53
2022-11-16T20:21:41.380Z,94.51
2022-11-16T20:24:14.852Z,97.39
2022-11-16T20:26:49.541Z,95.34
2022-11-16T20:29:18.980Z,85.39
2022-11-16T20:31:47.563Z,85.05
2022-11-16T20:34:16.812Z,87.88
2022-11-16T20:36:46.495Z,93.89
2022-11-16T20:39:15.858Z,91.68
2022-11-16T20:41:44.404Z,90.51
2022-11-16T20:44:23.567Z,85.66
2022-11-16T20:46:54.550Z,88.67
2022-11-16T20:49:22.262Z,90.87
2022-11-16T20:51:51.426Z,93.86
2022-11-16T20:54:19.877Z,93.70
2022-11-16T20:56:49.703Z,89.74
2022-11-16T20:59:17.429Z,83.89
2022-11-16T21:01:48.191Z,83.61
2022-11-16T21:04:16.334Z,83.60
2022-11-16T21:06:43.798Z,83.52
2022-11-16T21:09:12.209Z,85.13
2022-11-16T21:11:58.594Z,85.53
2022-11-16T21:14:26.646Z,86.40
2022-11-16T21:16:54.129Z,86.64
2022-11-16T21:19:21.492Z,86.30
2022-11-16T21:21:49.315Z,86.29
2022-11-16T21:24:17.656Z,86.53
2022-11-16T21:26:45.112Z,87.12
2022-11-16T21:29:12.710Z,88.05
2022-11-16T21:31:40.103Z,86.77
2022-11-16T21:34:07.560Z,86.67
2022-11-16T21:36:36.203Z,85.94
2022-11-16T21:39:03.645Z,85.78
2022-11-16T21:41:31.754Z,85.04
2022-11-16T21:43:59.388Z,84.80
2022-11-16T21:46:27.145Z,85.22
2022-11-16T21:48:56.682Z,85.84
2022-11-16T21:51:26.254Z,84.75
2022-11-16T21:53:55.582Z,84.45
2022-11-16T21:56:24.636Z,89.03
2022-11-16T21:58:53.091Z,86.49
2022-11-16T22:01:21.303Z,85.19
2022-11-16T22:04:09.440Z,87.72
2022-11-16T22:06:55.729Z,86.52
2022-11-16T22:09:23.599Z,84.51
2022-11-16T22:11:50.946Z,85.62
2022-11-16T22:14:18.271Z,84.97
2022-11-16T22:16:45.889Z,85.94
2022-11-16T22:19:13.224Z,85.38
2022-11-16T22:21:40.529Z,90.64
2022-11-16T22:24:08.342Z,90.74
2022-11-16T22:26:37.946Z,92.78
2022-11-16T22:29:05.264Z,97.58
2022-11-16T22:31:33.027Z,94.07
2022-11-16T22:34:00.354Z,95.88
2022-11-16T22:36:27.879Z,98.72
2022-11-16T22:38:57.129Z,89.17
2022-11-16T22:41:24.490Z,87.83
2022-11-16T22:43:51.850Z,85.92
2022-11-16T22:46:19.438Z,85.97
2022-11-16T22:48:47.901Z,86.76
2022-11-16T22:51:20.201Z,83.70
2022-11-16T22:53:48.042Z,87.31
2022-11-16T22:56:15.368Z,85.94
2022-11-16T22:58:42.740Z,86.97
2022-11-16T23:01:10.582Z,89.71
2022-11-16T23:03:38.764Z,89.55
2022-11-16T23:06:06.925Z,91.69
2022-11-16T23:08:35.650Z,92.99
2022-11-16T23:11:32.692Z,95.20
2022-11-16T23:14:19.344Z,92.00
2022-11-16T23:16:47.225Z,94.97
2022-11-16T23:19:35.313Z,96.65
2022-11-16T23:22:21.889Z,96.54
2022-11-16T23:25:07.806Z,98.59
2022-11-16T23:27:59.867Z,98.79
2022-11-16T23:30:27.501Z,99.09
2022-11-16T23:32:55.240Z,99.65
2022-11-16T23:35:23.040Z,92.87
2022-11-16T23:38:04.517Z,92.93
2022-11-16T23:40:37.288Z,95.65
2022-11-16T23:43:24.536Z,96.78
2022-11-16T23:45:51.843Z,97.20
2022-11-16T23:48:19.449Z,94.65
2022-11-16T23:50:46.842Z,93.71
2022-11-16T23:53:14.205Z,89.29
2022-11-16T23:55:42.105Z,86.87
2022-11-16T23:58:15.182Z,87.02
